createdAt,value
2023-05-20T00:00:35.716Z,6.47
2023-05-20T00:03:02.303Z,6.47
2023-05-20T00:05:28.928Z,5.40
2023-05-20T00:07:55.444Z,12.30
2023-05-20T00:10:21.943Z,6.15
2023-05-20T00:12:48.419Z,9.07
2023-05-20T00:15:15.063Z,10.60
2023-05-20T00:17:41.591Z,8.80
2023-05-20T00:20:08.605Z,9.90
2023-05-20T00:22:35.078Z,5.07
2023-05-20T00:25:01.587Z,9.50
2023-05-20T00:27:28.135Z,7.50
2023-05-20T00:29:54.651Z,6.60
2023-05-20T00:32:21.217Z,7.70
2023-05-20T00:34:57.370Z,5.43
2023-05-20T00:37:24.252Z,7.70
2023-05-20T00:39:51.171Z,9.38
2023-05-20T00:42:28.261Z,6.38
2023-05-20T00:44:56.015Z,7.70
2023-05-20T00:47:26.813Z,7.00
2023-05-20T00:49:53.567Z,8.88
2023-05-20T00:52:21.326Z,5.57
2023-05-20T00:54:47.879Z,7.63
2023-05-20T00:57:15.358Z,11.55
2023-05-20T00:59:43.496Z,5.97
2023-05-20T01:02:11.835Z,8.18
2023-05-20T01:04:38.631Z,7.38
2023-05-20T01:07:07.323Z,14.27
2023-05-20T01:09:33.978Z,7.38
2023-05-20T01:12:06.952Z,5.82
2023-05-20T01:14:39.531Z,9.43
2023-05-20T01:17:10.999Z,7.07
2023-05-20T01:19:44.126Z,8.73
2023-05-20T01:22:15.187Z,9.60
2023-05-20T01:24:43.064Z,9.43
2023-05-20T01:27:13.566Z,6.78
2023-05-20T01:29:42.144Z,7.57
2023-05-20T01:32:28.582Z,6.70
2023-05-20T01:34:56.289Z,10.00
2023-05-20T01:37:25.227Z,7.95
2023-05-20T01:39:53.995Z,5.90
2023-05-20T01:42:21.050Z,7.60
2023-05-20T01:44:47.625Z,6.72
2023-05-20T01:47:14.147Z,9.02
2023-05-20T01:49:41.488Z,6.43
2023-05-20T01:52:08.070Z,10.65
2023-05-20T01:54:34.603Z,8.35
2023-05-20T01:57:01.581Z,5.57
2023-05-20T01:59:28.131Z,6.47
2023-05-20T02:01:54.661Z,5.88
2023-05-20T02:04:22.646Z,9.48
2023-05-20T02:06:49.244Z,7.15
2023-05-20T02:09:15.917Z,10.73
2023-05-20T02:11:42.438Z,8.45
2023-05-20T02:14:08.949Z,10.77
2023-05-20T02:16:35.523Z,7.85
2023-05-20T02:19:02.228Z,7.30
2023-05-20T02:21:28.881Z,6.20
2023-05-20T02:23:55.381Z,12.70
2023-05-20T02:26:22.680Z,6.35
2023-05-20T02:28:50.812Z,9.63
2023-05-20T02:31:17.781Z,10.10
2023-05-20T02:33:45.206Z,10.57
2023-05-20T02:36:11.854Z,6.18
2023-05-20T02:38:38.417Z,8.68
2023-05-20T02:41:05.023Z,6.80
2023-05-20T02:43:32.772Z,12.13
2023-05-20T02:45:59.323Z,6.97
2023-05-20T02:48:26.346Z,8.30
2023-05-20T02:50:53.192Z,8.93
2023-05-20T02:53:19.750Z,7.18
2023-05-20T02:55:50.520Z,8.15
2023-05-20T02:58:17.326Z,8.13
2023-05-20T03:00:44.407Z,9.02
2023-05-20T03:03:11.176Z,14.52
2023-05-20T03:05:38.212Z,7.28
2023-05-20T03:08:10.008Z,6.75
2023-05-20T03:10:39.784Z,7.63
2023-05-20T03:13:11.556Z,8.77
2023-05-20T03:15:39.292Z,9.13
2023-05-20T03:18:07.228Z,7.50
2023-05-20T03:20:36.897Z,10.10
2023-05-20T03:23:03.798Z,6.80
2023-05-20T03:25:30.980Z,9.40
2023-05-20T03:28:00.735Z,11.50
2023-05-20T03:30:28.088Z,7.30
2023-05-20T03:32:58.633Z,7.07
2023-05-20T03:35:27.893Z,10.98
2023-05-20T03:37:54.408Z,6.90
2023-05-20T03:40:21.341Z,9.10
2023-05-20T03:42:48.023Z,8.48
2023-05-20T03:45:14.566Z,12.88
2023-05-20T03:47:41.251Z,8.90
2023-05-20T03:50:08.135Z,6.95
2023-05-20T03:52:34.794Z,7.78
2023-05-20T03:55:01.433Z,11.82
2023-05-20T03:57:29.425Z,8.23
2023-05-20T03:59:56.125Z,9.73
2023-05-20T04:02:22.889Z,10.23
2023-05-20T04:04:53.033Z,9.32
2023-05-20T04:07:19.841Z,9.68
2023-05-20T04:09:46.757Z,13.35
2023-05-20T04:12:13.957Z,8.18
2023-05-20T04:14:42.220Z,7.30
2023-05-20T04:17:09.547Z,9.13
2023-05-20T04:19:38.226Z,10.25
2023-05-20T04:22:04.919Z,7.50
2023-05-20T04:24:31.432Z,7.60
2023-05-20T04:26:57.980Z,7.28
2023-05-20T04:29:24.613Z,18.25
2023-05-20T04:31:52.101Z,8.80
2023-05-20T04:34:20.220Z,5.97
2023-05-20T04:36:47.121Z,10.30
2023-05-20T04:39:13.989Z,8.73
2023-05-20T04:41:40.520Z,8.18
2023-05-20T04:44:07.286Z,6.95
2023-05-20T04:46:33.987Z,8.80
2023-05-20T04:49:00.632Z,9.75
2023-05-20T04:51:27.302Z,9.75
2023-05-20T04:53:53.799Z,9.25
2023-05-20T04:56:20.901Z,8.02
2023-05-20T04:58:47.479Z,9.73
2023-05-20T05:01:14.049Z,7.45
2023-05-20T05:03:40.603Z,8.38
2023-05-20T05:06:07.124Z,10.13
2023-05-20T05:08:33.614Z,7.95
2023-05-20T05:11:00.134Z,7.75
2023-05-20T05:13:26.776Z,7.40
2023-05-20T05:16:00.434Z,13.63
2023-05-20T05:18:27.320Z,9.95
2023-05-20T05:21:04.275Z,10.00
2023-05-20T05:23:30.833Z,8.32
2023-05-20T05:25:57.618Z,8.18
2023-05-20T05:28:24.624Z,11.23
2023-05-20T05:30:51.415Z,8.63
2023-05-20T05:33:17.936Z,9.32
2023-05-20T05:35:44.648Z,10.10
2023-05-20T05:38:11.142Z,9.60
2023-05-20T05:40:37.740Z,9.55
2023-05-20T05:43:04.442Z,12.27
2023-05-20T05:45:31.177Z,9.70
2023-05-20T05:47:57.946Z,10.80
2023-05-20T05:50:24.529Z,9.98
2023-05-20T05:52:51.055Z,9.75
2023-05-20T05:55:18.460Z,8.63
2023-05-20T05:57:45.486Z,7.85
2023-05-20T06:00:12.481Z,11.70
2023-05-20T06:02:39.199Z,8.20
2023-05-20T06:05:06.420Z,9.80
2023-05-20T06:07:32.923Z,9.07
2023-05-20T06:09:59.531Z,9.88
2023-05-20T06:12:26.190Z,8.63
2023-05-20T06:14:52.747Z,10.98
2023-05-20T06:17:19.437Z,10.10
2023-05-20T06:19:46.278Z,9.20
2023-05-20T06:22:12.819Z,11.52
2023-05-20T06:24:39.360Z,11.52
2023-05-20T06:27:06.163Z,12.18
2023-05-20T06:29:32.665Z,11.82
2023-05-20T06:31:59.803Z,17.33
2023-05-20T06:34:26.424Z,9.40
2023-05-20T06:36:53.572Z,12.13
2023-05-20T06:39:20.150Z,10.85
2023-05-20T06:41:46.662Z,11.32
2023-05-20T06:44:13.165Z,11.50
2023-05-20T06:46:39.721Z,8.77
2023-05-20T06:49:06.288Z,12.23
2023-05-20T06:51:32.852Z,11.63
2023-05-20T06:53:59.359Z,12.57
2023-05-20T06:56:26.087Z,10.15
2023-05-20T06:58:52.686Z,10.35
2023-05-20T07:01:19.277Z,13.48
2023-05-20T07:03:45.912Z,10.77
2023-05-20T07:06:12.426Z,15.45
2023-05-20T07:08:39.102Z,11.75
2023-05-20T07:11:05.868Z,9.25
2023-05-20T07:13:32.409Z,10.13
2023-05-20T07:15:59.045Z,11.95
2023-05-20T07:18:25.674Z,12.32
2023-05-20T07:20:52.915Z,10.65
2023-05-20T07:23:19.509Z,12.77
2023-05-20T07:25:46.097Z,12.55
2023-05-20T07:28:16.135Z,12.52
2023-05-20T07:30:42.799Z,12.68
2023-05-20T07:33:09.308Z,14.65
2023-05-20T07:35:36.301Z,13.68
2023-05-20T07:38:03.048Z,13.73
2023-05-20T07:40:29.544Z,10.05
2023-05-20T07:42:56.158Z,13.05
2023-05-20T07:45:22.689Z,14.52
2023-05-20T07:47:50.688Z,12.38
2023-05-20T07:50:17.202Z,15.88
2023-05-20T07:52:55.280Z,14.25
2023-05-20T07:55:23.601Z,13.23
2023-05-20T07:57:50.406Z,13.07
2023-05-20T08:00:17.024Z,12.60
2023-05-20T08:02:43.766Z,15.45
2023-05-20T08:05:10.562Z,15.90
2023-05-20T08:07:37.090Z,15.93
2023-05-20T08:10:03.868Z,14.07
2023-05-20T08:12:30.357Z,14.40
2023-05-20T08:14:56.853Z,14.85
2023-05-20T08:17:23.489Z,12.77
2023-05-20T08:19:50.213Z,15.80
2023-05-20T08:22:17.114Z,14.63
2023-05-20T08:24:43.709Z,14.23
2023-05-20T08:27:10.230Z,12.52
2023-05-20T08:29:36.853Z,12.20
2023-05-20T08:32:03.433Z,15.65
2023-05-20T08:34:29.964Z,15.32
2023-05-20T08:36:57.777Z,15.70
2023-05-20T08:39:26.337Z,16.35
2023-05-20T08:41:52.970Z,15.18
2023-05-20T08:44:21.418Z,17.05
2023-05-20T08:46:48.892Z,14.80
2023-05-20T08:49:15.559Z,16.88
2023-05-20T08:51:43.111Z,21.13
2023-05-20T08:54:10.081Z,14.48
2023-05-20T08:56:36.932Z,14.98
2023-05-20T08:59:03.891Z,15.50
2023-05-20T09:01:30.486Z,14.95
2023-05-20T09:03:57.114Z,15.48
2023-05-20T09:06:24.159Z,13.73
2023-05-20T09:08:53.876Z,13.63
2023-05-20T09:11:22.320Z,14.52
2023-05-20T09:13:50.463Z,10.85
2023-05-20T09:16:17.097Z,14.27
2023-05-20T09:18:43.741Z,15.95
2023-05-20T09:21:10.615Z,20.50
2023-05-20T09:23:38.493Z,15.05
2023-05-20T09:26:05.657Z,16.60
2023-05-20T09:28:32.240Z,16.70
2023-05-20T09:30:59.840Z,14.10
2023-05-20T09:33:31.809Z,15.20
2023-05-20T09:36:04.295Z,16.70
2023-05-20T09:38:37.791Z,15.52
2023-05-20T09:41:13.726Z,14.73
2023-05-20T09:43:40.883Z,12.32
2023-05-20T09:46:08.390Z,15.57
2023-05-20T09:48:40.992Z,15.60
2023-05-20T09:51:08.260Z,15.23
2023-05-20T09:53:36.226Z,14.23
2023-05-20T09:56:03.359Z,13.38
2023-05-20T09:58:30.577Z,17.42
2023-05-20T10:00:57.458Z,15.90
2023-05-20T10:03:25.159Z,14.02
2023-05-20T10:06:04.761Z,13.73
2023-05-20T10:08:48.026Z,15.25
2023-05-20T10:11:24.201Z,14.55
2023-05-20T10:14:12.736Z,12.38
2023-05-20T10:17:08.747Z,14.23
2023-05-20T10:19:35.957Z,15.60
2023-05-20T10:22:05.684Z,10.90
2023-05-20T10:24:41.272Z,15.10
2023-05-20T10:27:10.078Z,10.95
2023-05-20T10:29:51.318Z,13.57
2023-05-20T10:32:25.889Z,13.10
2023-05-20T10:34:52.904Z,16.60
2023-05-20T10:37:33.534Z,11.75
2023-05-20T10:40:20.169Z,12.02
2023-05-20T10:42:48.090Z,9.77
2023-05-20T10:45:37.426Z,12.10
2023-05-20T10:48:04.411Z,15.07
2023-05-20T10:50:36.369Z,15.48
2023-05-20T10:53:13.336Z,12.75
2023-05-20T10:55:53.414Z,14.90
2023-05-20T10:58:21.392Z,13.30
2023-05-20T11:00:50.915Z,11.60
2023-05-20T11:03:18.659Z,13.10
2023-05-20T11:05:47.281Z,11.77
2023-05-20T11:10:47.203Z,12.30
2023-05-20T11:13:15.396Z,13.15
2023-05-20T11:15:42.405Z,13.73
2023-05-20T11:18:12.401Z,11.43
2023-05-20T11:20:39.010Z,13.88
2023-05-20T11:23:06.728Z,15.07
2023-05-20T11:25:33.588Z,17.85
2023-05-20T11:28:00.253Z,11.25
2023-05-20T11:30:26.967Z,13.25
2023-05-20T11:33:03.999Z,14.80
2023-05-20T11:35:32.212Z,13.68
2023-05-20T11:38:01.760Z,13.57
2023-05-20T11:40:32.922Z,11.10
2023-05-20T11:43:05.872Z,11.65
2023-05-20T11:45:45.468Z,11.48
2023-05-20T11:48:12.746Z,12.35
2023-05-20T11:50:41.036Z,12.18
2023-05-20T11:53:10.103Z,11.10
2023-05-20T11:55:53.869Z,9.10
2023-05-20T11:58:23.610Z,10.52
2023-05-20T12:00:55.005Z,12.60
2023-05-20T12:03:26.176Z,9.48
2023-05-20T12:05:53.462Z,8.27
2023-05-20T12:08:19.971Z,12.98
2023-05-20T12:10:46.967Z,11.35
2023-05-20T12:13:13.793Z,9.52
2023-05-20T12:15:41.194Z,9.05
2023-05-20T12:18:08.051Z,6.70
2023-05-20T12:20:35.093Z,14.15
2023-05-20T12:23:02.203Z,13.43
2023-05-20T12:25:29.561Z,11.48
2023-05-20T12:27:56.402Z,12.00
2023-05-20T12:30:23.984Z,9.63
2023-05-20T12:32:52.233Z,12.32
2023-05-20T12:35:40.445Z,11.35
2023-05-20T12:38:07.588Z,9.98
2023-05-20T12:40:35.229Z,9.32
2023-05-20T12:43:03.402Z,6.40
2023-05-20T12:45:30.430Z,11.40
2023-05-20T12:47:57.541Z,11.75
2023-05-20T12:50:24.699Z,7.65
2023-05-20T12:52:51.390Z,7.60
2023-05-20T12:55:17.938Z,9.02
2023-05-20T12:57:45.630Z,9.35
2023-05-20T13:00:13.119Z,13.65
2023-05-20T13:02:42.226Z,9.40
2023-05-20T13:05:09.727Z,8.93
2023-05-20T13:07:36.375Z,6.65
2023-05-20T13:10:03.038Z,7.57
2023-05-20T13:12:29.773Z,6.18
2023-05-20T13:14:56.282Z,6.43
2023-05-20T13:17:22.852Z,8.18
2023-05-20T13:19:49.403Z,6.97
2023-05-20T13:22:16.058Z,6.72
2023-05-20T13:24:42.620Z,7.95
2023-05-20T13:27:09.135Z,5.18
2023-05-20T13:29:35.771Z,9.38
2023-05-20T13:32:02.285Z,8.63
2023-05-20T13:34:30.385Z,8.20
2023-05-20T13:36:56.999Z,5.80
2023-05-20T13:39:23.581Z,5.88
2023-05-20T13:41:50.788Z,5.82
2023-05-20T13:44:17.301Z,7.45
2023-05-20T13:46:43.962Z,5.80
2023-05-20T13:49:10.514Z,5.97
2023-05-20T13:51:37.028Z,8.35
2023-05-20T13:54:03.947Z,7.28
2023-05-20T13:56:30.486Z,6.68
2023-05-20T13:58:57.269Z,10.55
2023-05-20T14:01:24.211Z,8.68
2023-05-20T14:03:50.980Z,8.60
2023-05-20T14:06:18.873Z,7.50
2023-05-20T14:08:46.189Z,9.30
2023-05-20T14:11:13.059Z,6.90
2023-05-20T14:13:39.664Z,8.30
2023-05-20T14:16:06.605Z,6.15
2023-05-20T14:18:33.148Z,13.25
2023-05-20T14:20:59.721Z,7.03
2023-05-20T14:23:27.325Z,7.22
2023-05-20T14:25:53.891Z,8.13
2023-05-20T14:28:20.384Z,9.02
2023-05-20T14:30:46.917Z,10.80
2023-05-20T14:33:13.478Z,9.38
2023-05-20T14:35:39.998Z,8.77
2023-05-20T14:38:06.933Z,6.95
2023-05-20T14:40:33.852Z,7.07
2023-05-20T14:43:00.621Z,10.27
2023-05-20T14:45:27.123Z,9.52
2023-05-20T14:47:56.434Z,7.72
2023-05-20T14:50:22.977Z,9.07
2023-05-20T14:52:49.684Z,7.22
2023-05-20T14:55:16.254Z,8.52
2023-05-20T14:57:43.473Z,6.70
2023-05-20T15:00:10.647Z,6.25
2023-05-20T15:02:37.430Z,8.20
2023-05-20T15:05:04.206Z,14.75
2023-05-20T15:07:30.766Z,9.70
2023-05-20T15:09:57.259Z,8.35
2023-05-20T15:12:23.836Z,7.18
2023-05-20T15:14:50.344Z,8.30
2023-05-20T15:17:17.109Z,8.40
2023-05-20T15:19:43.667Z,8.98
2023-05-20T15:22:10.235Z,7.60
2023-05-20T15:24:36.750Z,9.52
2023-05-20T15:27:03.849Z,10.77
2023-05-20T15:29:33.425Z,8.95
2023-05-20T15:32:00.046Z,8.38
2023-05-20T15:34:26.527Z,9.98
2023-05-20T15:36:53.136Z,7.13
2023-05-20T15:39:19.652Z,6.60
2023-05-20T15:41:48.005Z,8.93
2023-05-20T15:44:14.573Z,10.05
2023-05-20T15:46:44.913Z,9.55
2023-05-20T15:49:12.678Z,11.65
2023-05-20T15:51:39.921Z,9.20
2023-05-20T15:54:07.921Z,7.78
2023-05-20T15:56:34.487Z,12.05
2023-05-20T15:59:01.049Z,7.15
2023-05-20T16:01:28.558Z,8.50
2023-05-20T16:03:57.776Z,9.40
2023-05-20T16:06:24.832Z,7.68
2023-05-20T16:08:51.470Z,10.27
2023-05-20T16:11:18.031Z,7.90
2023-05-20T16:13:44.551Z,8.18
2023-05-20T16:16:13.455Z,7.85
2023-05-20T16:18:40.316Z,9.68
2023-05-20T16:21:07.942Z,8.23
2023-05-20T16:23:34.964Z,10.48
2023-05-20T16:26:01.739Z,8.57
2023-05-20T16:28:28.334Z,10.65
2023-05-20T16:30:54.807Z,11.73
2023-05-20T16:33:21.309Z,7.32
2023-05-20T16:35:47.987Z,7.22
2023-05-20T16:38:14.484Z,11.13
2023-05-20T16:40:41.227Z,7.85
2023-05-20T16:43:07.806Z,10.20
2023-05-20T16:45:34.498Z,7.70
2023-05-20T16:48:01.424Z,7.88
2023-05-20T16:50:28.036Z,8.98
2023-05-20T16:52:55.499Z,7.60
2023-05-20T16:55:22.245Z,11.80
2023-05-20T16:57:50.475Z,6.93
2023-05-20T17:00:17.175Z,8.70
2023-05-20T17:02:43.790Z,7.22
2023-05-20T17:05:10.652Z,9.25
2023-05-20T17:07:37.270Z,8.50
2023-05-20T17:10:04.128Z,8.73
2023-05-20T17:12:30.724Z,10.98
2023-05-20T17:14:57.836Z,8.48
2023-05-20T17:17:24.339Z,6.88
2023-05-20T17:19:51.050Z,7.40
2023-05-20T17:22:17.625Z,8.48
2023-05-20T17:24:44.153Z,7.60
2023-05-20T17:27:10.722Z,11.93
2023-05-20T17:29:37.210Z,8.80
2023-05-20T17:32:04.018Z,10.00
2023-05-20T17:34:30.562Z,8.65
2023-05-20T17:36:57.590Z,9.05
2023-05-20T17:39:24.107Z,9.20
2023-05-20T17:41:50.625Z,8.43
2023-05-20T17:44:17.178Z,8.68
2023-05-20T17:46:43.816Z,11.13
2023-05-20T17:49:10.554Z,9.38
2023-05-20T17:51:37.104Z,7.15
2023-05-20T17:54:03.778Z,10.68
2023-05-20T17:56:30.358Z,7.43
2023-05-20T17:58:56.913Z,9.32
2023-05-20T18:01:23.708Z,8.93
2023-05-20T18:03:50.727Z,10.60
2023-05-20T18:06:18.058Z,9.80
2023-05-20T18:08:44.718Z,11.05
2023-05-20T18:11:11.294Z,9.48
2023-05-20T18:13:37.969Z,10.07
2023-05-20T18:16:05.033Z,10.05
2023-05-20T18:18:31.723Z,11.93
2023-05-20T18:20:58.256Z,10.05
2023-05-20T18:23:24.777Z,12.18
2023-05-20T18:25:51.624Z,12.35
2023-05-20T18:28:18.208Z,10.25
2023-05-20T18:30:44.746Z,11.82
2023-05-20T18:33:11.348Z,9.98
2023-05-20T18:35:39.109Z,12.40
2023-05-20T18:38:05.725Z,16.50
2023-05-20T18:40:32.319Z,15.68
2023-05-20T18:42:59.040Z,10.68
2023-05-20T18:45:25.914Z,15.10
2023-05-20T18:47:54.458Z,14.18
2023-05-20T18:50:21.104Z,15.80
2023-05-20T18:52:47.747Z,16.02
2023-05-20T18:55:14.473Z,13.75
2023-05-20T18:57:41.198Z,16.58
2023-05-20T19:00:11.929Z,13.27
2023-05-20T19:02:39.881Z,14.40
2023-05-20T19:05:11.084Z,16.38
2023-05-20T19:07:38.862Z,14.07
2023-05-20T19:10:05.941Z,15.50
2023-05-20T19:12:32.808Z,17.50
2023-05-20T19:14:59.370Z,14.95
2023-05-20T19:17:26.147Z,16.08
2023-05-20T19:19:52.682Z,16.70
2023-05-20T19:22:19.210Z,15.65
2023-05-20T19:24:45.735Z,20.42
2023-05-20T19:27:12.217Z,15.48
2023-05-20T19:29:38.786Z,17.02
2023-05-20T19:32:05.726Z,16.10
2023-05-20T19:34:32.262Z,14.18
2023-05-20T19:36:58.815Z,16.08
2023-05-20T19:39:26.711Z,15.07
2023-05-20T19:41:53.442Z,18.52
2023-05-20T19:44:20.078Z,17.80
2023-05-20T19:46:47.318Z,16.45
2023-05-20T19:49:13.829Z,20.52
2023-05-20T19:51:40.394Z,15.98
2023-05-20T19:54:06.879Z,16.95
2023-05-20T19:56:33.405Z,14.13
2023-05-20T19:59:01.791Z,16.20
2023-05-20T20:01:28.666Z,16.30
2023-05-20T20:03:55.461Z,16.10
2023-05-20T20:06:22.407Z,18.20
2023-05-20T20:08:49.228Z,15.77
2023-05-20T20:11:15.961Z,15.90
2023-05-20T20:13:42.498Z,15.88
2023-05-20T20:16:09.143Z,16.77
2023-05-20T20:18:35.712Z,16.90
2023-05-20T20:21:05.730Z,16.58
2023-05-20T20:23:32.822Z,16.52
2023-05-20T20:25:59.395Z,19.33
2023-05-20T20:28:26.143Z,17.20
2023-05-20T20:30:52.702Z,15.73
2023-05-20T20:33:19.707Z,17.55
2023-05-20T20:35:46.760Z,17.92
2023-05-20T20:38:13.444Z,18.25
2023-05-20T20:40:41.848Z,18.80
2023-05-20T20:43:10.417Z,17.30
2023-05-20T20:45:37.071Z,20.40
2023-05-20T20:48:08.180Z,18.50
2023-05-20T20:50:35.738Z,21.45
2023-05-20T20:53:02.570Z,16.65
2023-05-20T20:55:32.180Z,18.70
2023-05-20T20:58:02.492Z,17.73
2023-05-20T21:00:29.402Z,18.88
2023-05-20T21:02:56.237Z,18.35
2023-05-20T21:05:26.505Z,19.85
2023-05-20T21:07:58.326Z,18.40
2023-05-20T21:10:29.759Z,18.35
2023-05-20T21:12:57.270Z,19.15
2023-05-20T21:15:24.655Z,21.25
2023-05-20T21:17:51.867Z,21.13
2023-05-20T21:20:24.191Z,20.30
2023-05-20T21:22:50.860Z,21.70
2023-05-20T21:25:17.480Z,21.58
2023-05-20T21:27:44.094Z,19.65
2023-05-20T21:30:11.601Z,18.42
2023-05-20T21:32:38.652Z,20.85
2023-05-20T21:35:05.721Z,16.33
2023-05-20T21:37:32.271Z,19.23
2023-05-20T21:39:58.843Z,19.70
2023-05-20T21:42:25.462Z,19.65
2023-05-20T21:44:51.945Z,21.13
2023-05-20T21:47:20.561Z,18.98
2023-05-20T21:49:48.198Z,19.67
2023-05-20T21:52:14.823Z,18.50
2023-05-20T21:54:41.757Z,20.67
2023-05-20T21:57:08.310Z,18.13
2023-05-20T21:59:35.121Z,21.63
2023-05-20T22:02:01.843Z,18.33
2023-05-20T22:04:28.744Z,24.85
2023-05-20T22:06:56.485Z,17.90
2023-05-20T22:09:23.136Z,20.45
2023-05-20T22:11:49.701Z,18.75
2023-05-20T22:14:16.852Z,21.75
2023-05-20T22:16:46.826Z,21.05
2023-05-20T22:19:15.182Z,18.88
2023-05-20T22:21:50.097Z,20.92
2023-05-20T22:24:17.838Z,23.08
2023-05-20T22:26:44.588Z,22.35
2023-05-20T22:29:11.104Z,24.77
2023-05-20T22:31:38.247Z,20.52
2023-05-20T22:34:05.487Z,19.92
2023-05-20T22:36:36.198Z,24.98
2023-05-20T22:39:04.469Z,20.98
2023-05-20T22:41:31.401Z,19.85
2023-05-20T22:43:58.007Z,19.35
2023-05-20T22:46:25.228Z,20.63
2023-05-20T22:48:55.377Z,20.27
2023-05-20T22:51:21.978Z,22.13
2023-05-20T22:53:49.069Z,22.73
2023-05-20T22:56:15.756Z,24.58
2023-05-20T22:58:42.593Z,19.50
2023-05-20T23:01:10.427Z,20.10
2023-05-20T23:03:37.923Z,19.45
2023-05-20T23:06:04.724Z,22.13
2023-05-20T23:08:31.316Z,20.02
2023-05-20T23:10:57.805Z,20.00
2023-05-20T23:13:24.290Z,20.90
2023-05-20T23:15:50.851Z,21.20
2023-05-20T23:18:18.323Z,19.02
2023-05-20T23:20:44.872Z,21.77
2023-05-20T23:23:14.442Z,18.20
2023-05-20T23:25:43.011Z,18.80
2023-05-20T23:28:12.944Z,19.58
2023-05-20T23:30:39.656Z,20.55
2023-05-20T23:33:06.567Z,21.58
2023-05-20T23:35:33.302Z,19.98
2023-05-20T23:37:59.924Z,21.77
2023-05-20T23:40:32.298Z,17.17
2023-05-20T23:42:58.817Z,17.70
2023-05-20T23:45:25.338Z,19.45
2023-05-20T23:47:51.851Z,18.27
2023-05-20T23:50:18.372Z,18.38
2023-05-20T23:52:46.253Z,18.73
2023-05-20T23:55:14.315Z,16.92
2023-05-20T23:57:41.363Z,16.85
